createdAt,value
2019-01-26T13:03:27.086Z,28.0
2019-01-26T13:04:28.458Z,28.0
2019-01-26T13:05:29.844Z,27.7
2019-01-26T13:06:31.222Z,28.0
2019-01-26T13:07:32.632Z,27.9
2019-01-26T13:08:34.002Z,27.8
2019-01-26T13:09:35.416Z,27.9
2019-01-26T13:10:36.784Z,27.6
2019-01-26T13:11:38.224Z,27.9
2019-01-26T13:12:39.658Z,27.6
2019-01-26T13:13:41.018Z,27.9
2019-01-26T13:14:42.396Z,27.6
2019-01-26T13:15:43.827Z,27.9
2019-01-26T13:16:45.233Z,27.7
2019-01-26T13:17:46.637Z,28.0
2019-01-26T13:18:48.011Z,28.0
2019-01-26T13:19:49.389Z,27.8
2019-01-26T13:20:50.786Z,27.9
2019-01-26T13:21:52.170Z,27.8
2019-01-26T13:22:53.528Z,27.6
2019-01-26T13:23:54.893Z,27.6
2019-01-26T13:24:56.269Z,27.8
2019-01-26T13:25:57.628Z,27.8
2019-01-26T13:26:59.010Z,27.8
2019-01-26T13:28:00.388Z,27.7
2019-01-26T13:29:01.770Z,27.7
2019-01-26T13:30:03.188Z,27.9
2019-01-26T13:31:04.615Z,27.8
2019-01-26T13:32:06.009Z,27.7
2019-01-26T13:33:07.449Z,27.9
2019-01-26T13:34:08.809Z,27.6
2019-01-26T13:35:10.189Z,27.8
2019-01-26T13:36:11.672Z,27.6
2019-01-26T13:37:13.046Z,27.7
2019-01-26T13:38:14.440Z,27.6
2019-01-26T13:39:15.855Z,27.9
2019-01-26T13:40:17.203Z,27.6
2019-01-26T13:41:18.569Z,27.9
2019-01-26T13:42:19.958Z,27.9
2019-01-26T13:43:21.317Z,27.6
2019-01-26T13:44:22.882Z,27.9
2019-01-26T13:45:24.231Z,27.7
2019-01-26T13:46:25.616Z,27.8
2019-01-26T13:47:26.994Z,27.6
2019-01-26T13:48:28.364Z,27.6
2019-01-26T13:49:29.744Z,27.6
2019-01-26T13:50:31.114Z,27.6
2019-01-26T13:51:34.020Z,27.9
2019-01-26T13:52:33.874Z,27.7
2019-01-26T13:53:35.260Z,27.9
2019-01-26T13:54:36.693Z,27.7
2019-01-26T13:55:38.178Z,27.7
2019-01-26T13:56:39.550Z,27.6
2019-01-26T13:57:40.998Z,27.7
2019-01-26T13:58:42.364Z,27.7
2019-01-26T13:59:43.744Z,27.7
2019-01-26T14:00:45.134Z,27.8
2019-01-26T14:01:46.566Z,27.8
2019-01-26T14:02:47.959Z,27.8
2019-01-26T14:03:49.334Z,27.9
2019-01-26T14:04:50.803Z,27.8
2019-01-26T14:05:52.179Z,27.6
2019-01-26T14:06:53.555Z,27.8
2019-01-26T14:07:54.966Z,27.9
2019-01-26T14:08:56.331Z,27.8
2019-01-26T14:09:57.701Z,27.7
2019-01-26T14:10:59.139Z,27.7
2019-01-26T14:12:00.506Z,27.7
2019-01-26T14:13:01.904Z,27.8
2019-01-26T14:14:03.285Z,27.6
2019-01-26T14:15:04.631Z,27.7
2019-01-26T14:16:05.989Z,28.0
2019-01-26T14:17:07.371Z,27.9
2019-01-26T14:18:08.914Z,27.7
2019-01-26T14:19:10.318Z,27.8
2019-01-26T14:20:11.738Z,27.9
2019-01-26T14:21:13.127Z,27.9
2019-01-26T14:22:14.508Z,27.8
2019-01-26T14:23:15.901Z,27.9
2019-01-26T14:24:17.310Z,27.8
2019-01-26T14:25:18.677Z,27.8
2019-01-26T14:26:20.051Z,27.9
2019-01-26T14:27:21.420Z,28.0
2019-01-26T14:28:22.854Z,28.0
2019-01-26T14:29:24.286Z,27.8
2019-01-26T14:30:25.669Z,27.8
2019-01-26T14:31:27.048Z,27.7
2019-01-26T14:32:28.407Z,27.8
2019-01-26T14:33:29.779Z,27.8
2019-01-26T14:34:31.163Z,27.8
2019-01-26T14:35:32.528Z,27.8
2019-01-26T14:36:33.902Z,27.9
2019-01-26T14:37:35.263Z,28.0
2019-01-26T14:38:36.709Z,27.6
2019-01-26T14:39:38.075Z,27.7
2019-01-26T14:40:39.444Z,27.8
2019-01-26T14:41:40.806Z,28.0
2019-01-26T14:42:42.193Z,27.7
2019-01-26T14:43:43.605Z,28.0
2019-01-26T14:44:44.975Z,28.0
2019-01-26T14:45:46.511Z,28.0
2019-01-26T14:46:47.886Z,28.0
2019-01-26T14:47:49.259Z,27.8
2019-01-26T14:48:50.622Z,28.1
2019-01-26T14:49:58.296Z,27.8
2019-01-26T14:50:53.333Z,27.9
2019-01-26T14:51:54.686Z,27.8
2019-01-26T14:52:56.062Z,27.8
2019-01-26T14:53:57.460Z,28.1
2019-01-26T14:54:58.824Z,28.0
2019-01-26T14:56:00.194Z,27.9
2019-01-26T14:57:02.181Z,27.9
2019-01-26T14:58:03.465Z,27.9
2019-01-26T14:59:04.842Z,27.8
2019-01-26T15:00:06.221Z,27.8
2019-01-26T15:01:07.581Z,27.7
2019-01-26T15:02:08.951Z,27.8
2019-01-26T15:03:10.400Z,27.8
2019-01-26T15:04:12.073Z,28.2
2019-01-26T15:05:13.425Z,28.0
2019-01-26T15:06:14.816Z,27.9
2019-01-26T15:07:16.152Z,28.1
2019-01-26T15:08:17.528Z,27.9
2019-01-26T15:09:18.903Z,28.0
2019-01-26T15:10:20.305Z,27.9
2019-01-26T15:11:21.680Z,27.9
2019-01-26T15:12:23.188Z,27.9
2019-01-26T15:13:24.548Z,27.8
2019-01-26T15:14:25.919Z,28.1
2019-01-26T15:15:27.306Z,28.1
2019-01-26T15:16:28.742Z,28.1
2019-01-26T15:17:30.055Z,28.3
2019-01-26T15:18:31.463Z,28.1
2019-01-26T15:19:32.883Z,28.1
2019-01-26T15:20:34.253Z,27.8
2019-01-26T15:21:35.620Z,27.9
2019-01-26T15:22:37.017Z,27.9
2019-01-26T15:23:38.343Z,27.9
2019-01-26T15:24:39.718Z,27.8
2019-01-26T15:25:41.095Z,28.3
2019-01-26T15:26:42.475Z,28.3
2019-01-26T15:27:43.848Z,27.9
2019-01-26T15:28:45.216Z,27.9
2019-01-26T15:29:46.581Z,28.2
2019-01-26T15:30:47.953Z,28.2
2019-01-26T15:31:49.321Z,28.3
2019-01-26T15:32:50.726Z,28.0
2019-01-26T15:33:52.084Z,28.3
2019-01-26T15:34:53.447Z,28.2
2019-01-26T15:35:54.832Z,28.0
2019-01-26T15:36:56.195Z,28.1
2019-01-26T15:37:57.594Z,28.1
2019-01-26T15:38:58.960Z,28.4
2019-01-26T15:40:00.333Z,28.3
2019-01-26T15:41:01.708Z,28.2
2019-01-26T15:42:03.082Z,28.2
2019-01-26T15:43:04.586Z,28.0
2019-01-26T15:44:05.958Z,28.3
2019-01-26T15:45:07.335Z,28.2
2019-01-26T15:46:08.724Z,28.1
2019-01-26T15:47:10.154Z,28.0
2019-01-26T15:48:11.549Z,28.3
2019-01-26T15:49:12.936Z,28.3
2019-01-26T15:50:14.296Z,28.0
2019-01-26T15:51:15.665Z,28.2
2019-01-26T15:52:17.052Z,28.1
2019-01-26T15:53:18.406Z,28.3
2019-01-26T15:54:19.784Z,28.1
2019-01-26T15:55:21.154Z,28.3
2019-01-26T15:56:22.522Z,28.5
2019-01-26T15:57:23.882Z,28.3
2019-01-26T15:58:25.287Z,28.2
2019-01-26T15:59:26.676Z,28.3
2019-01-26T16:00:28.054Z,28.2
2019-01-26T16:01:29.434Z,28.2
2019-01-26T16:02:30.803Z,28.1
2019-01-26T16:03:32.181Z,28.1
2019-01-26T16:04:33.579Z,28.4
2019-01-26T16:05:35.034Z,28.4
2019-01-26T16:06:36.609Z,28.3
2019-01-26T16:07:38.168Z,28.6
2019-01-26T16:08:39.674Z,28.3
2019-01-26T16:09:41.160Z,28.6
2019-01-26T16:10:42.654Z,28.6
2019-01-26T16:11:44.155Z,28.3
2019-01-26T16:12:45.569Z,28.4
2019-01-26T16:13:47.036Z,28.6
2019-01-26T16:14:48.538Z,28.6
2019-01-26T16:15:49.941Z,28.5
2019-01-26T16:16:51.314Z,28.5
2019-01-26T16:17:52.707Z,28.4
2019-01-26T16:18:54.079Z,28.4
2019-01-26T16:19:55.444Z,28.4
2019-01-26T16:20:56.919Z,28.7
2019-01-26T16:21:58.345Z,28.5
2019-01-26T16:22:59.887Z,28.5
2019-01-26T16:24:01.269Z,28.3
2019-01-26T16:25:02.645Z,28.5
2019-01-26T16:26:04.084Z,28.4
2019-01-26T16:27:05.410Z,28.6
2019-01-26T16:28:06.781Z,28.5
2019-01-26T16:29:08.428Z,28.6
2019-01-26T16:30:09.796Z,28.4
2019-01-26T16:31:11.212Z,28.6
2019-01-26T16:32:12.571Z,28.6
2019-01-26T16:33:13.988Z,28.6
2019-01-26T16:34:15.345Z,28.6
2019-01-26T16:35:16.716Z,28.5
2019-01-26T16:36:18.081Z,28.4
2019-01-26T16:37:19.506Z,28.6
2019-01-26T16:38:20.884Z,28.6
2019-01-26T16:39:22.448Z,28.6
2019-01-26T16:40:23.809Z,28.4
2019-01-26T16:41:25.187Z,28.4
2019-01-26T16:42:26.562Z,28.6
2019-01-26T16:43:27.931Z,28.6
2019-01-26T16:44:29.299Z,28.6
2019-01-26T16:45:30.669Z,28.5
2019-01-26T16:46:32.068Z,28.5
2019-01-26T16:47:33.467Z,28.7
2019-01-26T16:48:34.832Z,28.5
2019-01-26T16:49:36.210Z,28.6
2019-01-26T16:50:37.580Z,28.7
2019-01-26T16:51:38.990Z,28.7
2019-01-26T16:52:40.363Z,28.8
2019-01-26T16:53:41.778Z,28.8
2019-01-26T16:54:43.187Z,28.8
2019-01-26T16:55:44.607Z,28.8
2019-01-26T16:56:46.148Z,28.7
2019-01-26T16:57:47.517Z,28.5
2019-01-26T16:58:48.992Z,28.5
2019-01-26T16:59:50.378Z,28.7
2019-01-26T17:00:51.778Z,28.7
2019-01-26T17:01:53.163Z,28.6
2019-01-26T17:02:54.570Z,28.7
2019-01-26T17:03:55.954Z,28.7
2019-01-26T17:04:57.351Z,28.8
2019-01-26T17:05:58.717Z,28.8
2019-01-26T17:07:00.091Z,28.8
2019-01-26T17:08:01.454Z,29.0
2019-01-26T17:09:02.919Z,28.6
2019-01-26T17:10:04.295Z,28.7
2019-01-26T17:11:05.664Z,28.7
2019-01-26T17:12:07.208Z,28.7
2019-01-26T17:13:08.800Z,28.3
2019-01-26T17:14:10.193Z,28.6
2019-01-26T17:15:11.595Z,28.7
2019-01-26T17:16:12.990Z,28.8
2019-01-26T17:17:14.347Z,28.6
2019-01-26T17:18:15.712Z,28.7
2019-01-26T17:19:17.396Z,28.6
2019-01-26T17:20:18.652Z,28.7
2019-01-26T17:21:20.080Z,28.7
2019-01-26T17:22:21.454Z,28.4
2019-01-26T17:23:22.802Z,28.9
2019-01-26T17:24:24.203Z,28.3
2019-01-26T17:25:25.585Z,28.5
2019-01-26T17:26:26.995Z,28.8
2019-01-26T17:27:28.347Z,28.8
2019-01-26T17:28:29.728Z,28.4
2019-01-26T17:29:31.099Z,28.9
2019-01-26T17:30:32.476Z,28.3
2019-01-26T17:31:33.914Z,28.4
2019-01-26T17:32:35.309Z,28.4
2019-01-26T17:33:36.680Z,28.9
2019-01-26T17:34:38.049Z,28.4
2019-01-26T17:35:39.458Z,28.4
2019-01-26T17:36:40.845Z,28.4
2019-01-26T17:37:42.231Z,28.3
2019-01-26T17:38:43.612Z,29.0
2019-01-26T17:39:44.979Z,28.8
2019-01-26T17:40:46.342Z,29.0
2019-01-26T17:41:47.735Z,29.0
2019-01-26T17:42:49.150Z,28.9
2019-01-26T17:43:50.576Z,28.9
2019-01-26T17:44:51.934Z,28.6
2019-01-26T17:45:53.292Z,28.8
2019-01-26T17:46:54.660Z,28.5
2019-01-26T17:47:56.066Z,28.8
2019-01-26T17:48:57.435Z,28.8
2019-01-26T17:49:58.852Z,28.7
2019-01-26T17:51:00.198Z,28.7
2019-01-26T17:52:01.571Z,28.8
2019-01-26T17:53:02.951Z,28.8
2019-01-26T17:54:04.315Z,28.7
2019-01-26T17:55:05.692Z,28.7
2019-01-26T17:56:07.076Z,28.8
2019-01-26T17:57:08.446Z,28.7
2019-01-26T17:58:09.834Z,28.8
2019-01-26T17:59:11.196Z,28.7
2019-01-26T18:00:12.626Z,28.8
2019-01-26T18:01:14.023Z,28.9
2019-01-26T18:02:15.386Z,28.8
2019-01-26T18:03:16.756Z,28.8
2019-01-26T18:04:18.137Z,28.6
2019-01-26T18:05:19.547Z,28.6
2019-01-26T18:06:20.913Z,28.9
2019-01-26T18:07:22.300Z,28.5
2019-01-26T18:08:23.663Z,28.5
2019-01-26T18:09:25.046Z,28.9
2019-01-26T18:10:26.447Z,28.6
2019-01-26T18:11:27.813Z,29.0
2019-01-26T18:12:29.341Z,28.9
2019-01-26T18:13:30.702Z,28.4
2019-01-26T18:14:32.113Z,28.7
2019-01-26T18:15:33.484Z,28.7
2019-01-26T18:16:34.854Z,28.8
2019-01-26T18:17:36.229Z,28.8
2019-01-26T18:18:37.592Z,28.7
2019-01-26T18:19:38.966Z,28.7
2019-01-26T18:20:40.348Z,28.8
2019-01-26T18:21:41.752Z,28.7
2019-01-26T18:22:43.130Z,28.9
2019-01-26T18:23:44.513Z,28.6
2019-01-26T18:24:45.888Z,28.8
2019-01-26T18:25:47.253Z,28.9
2019-01-26T18:26:48.620Z,28.9
2019-01-26T18:27:49.990Z,28.9
2019-01-26T18:28:51.355Z,28.6
2019-01-26T18:29:52.726Z,29.0
2019-01-26T18:30:54.109Z,28.8
2019-01-26T18:31:55.487Z,28.8
2019-01-26T18:32:56.862Z,28.9
2019-01-26T18:33:58.230Z,28.9
2019-01-26T18:34:59.594Z,28.7
2019-01-26T18:36:00.958Z,28.9
2019-01-26T18:37:02.352Z,28.9
2019-01-26T18:38:03.723Z,28.7
2019-01-26T18:39:05.137Z,28.8
2019-01-26T18:40:06.504Z,28.5
2019-01-26T18:41:07.913Z,28.5
2019-01-26T18:42:09.299Z,28.9
2019-01-26T18:43:10.665Z,28.8
2019-01-26T18:44:12.054Z,28.8
2019-01-26T18:45:13.436Z,28.8
2019-01-26T18:46:14.796Z,28.9
2019-01-26T18:47:16.176Z,28.8
2019-01-26T18:48:17.558Z,28.7
2019-01-26T18:49:18.934Z,28.6
2019-01-26T18:50:20.292Z,28.9
2019-01-26T18:51:21.663Z,28.8
2019-01-26T18:52:23.033Z,28.6
2019-01-26T18:53:24.444Z,28.9
2019-01-26T18:54:25.829Z,28.5
2019-01-26T18:55:27.186Z,29.0
2019-01-26T18:56:28.563Z,28.9
2019-01-26T18:57:29.929Z,28.7
2019-01-26T18:58:31.433Z,28.8
2019-01-26T18:59:32.799Z,28.9
2019-01-26T19:00:34.169Z,28.8
2019-01-26T19:01:35.569Z,28.7
2019-01-26T19:02:36.929Z,28.8
2019-01-26T19:03:38.302Z,28.9
2019-01-26T19:04:39.671Z,28.8
2019-01-26T19:05:41.040Z,28.8
2019-01-26T19:06:42.416Z,28.8
2019-01-26T19:07:43.784Z,28.8
2019-01-26T19:08:45.181Z,28.8
2019-01-26T19:09:46.520Z,28.8
2019-01-26T19:10:47.895Z,28.9
2019-01-26T19:11:49.261Z,28.7
2019-01-26T19:12:50.631Z,28.8
2019-01-26T19:13:52.041Z,28.8
2019-01-26T19:14:53.488Z,28.8
2019-01-26T19:15:54.853Z,28.8
2019-01-26T19:16:56.230Z,28.7
2019-01-26T19:17:57.635Z,28.7
2019-01-26T19:18:59.020Z,28.8
2019-01-26T19:20:00.415Z,28.8
2019-01-26T19:21:03.418Z,28.7
2019-01-26T19:22:03.100Z,28.7
2019-01-26T19:23:04.648Z,28.5
2019-01-26T19:24:05.960Z,28.9
2019-01-26T19:25:07.337Z,28.5
2019-01-26T19:26:08.702Z,28.7
2019-01-26T19:27:10.066Z,28.5
2019-01-26T19:28:11.439Z,28.8
2019-01-26T19:29:12.817Z,28.8
2019-01-26T19:30:14.196Z,28.6
2019-01-26T19:31:15.580Z,28.9
2019-01-26T19:32:16.950Z,28.4
2019-01-26T19:33:18.334Z,28.9
2019-01-26T19:34:19.699Z,28.3
2019-01-26T19:35:21.087Z,28.5
2019-01-26T19:36:22.501Z,28.5
2019-01-26T19:37:23.948Z,28.3
2019-01-26T19:38:25.317Z,28.9
2019-01-26T19:39:26.740Z,28.4
2019-01-26T19:40:28.122Z,28.4
2019-01-26T19:41:29.534Z,28.6
2019-01-26T19:42:30.900Z,28.3
2019-01-26T19:43:32.306Z,28.3
2019-01-26T19:44:33.672Z,28.6
2019-01-26T19:45:35.039Z,28.6
2019-01-26T19:46:36.532Z,28.7
2019-01-26T19:47:37.898Z,28.8
2019-01-26T19:48:39.268Z,28.8
2019-01-26T19:49:40.659Z,28.6
2019-01-26T19:50:42.046Z,28.6
2019-01-26T19:51:43.407Z,28.7
2019-01-26T19:52:44.771Z,28.9
2019-01-26T19:53:46.182Z,28.6
2019-01-26T19:54:47.553Z,28.8
2019-01-26T19:55:48.915Z,28.6
2019-01-26T19:56:50.281Z,28.8
2019-01-26T19:57:51.676Z,28.5
2019-01-26T19:58:53.055Z,28.6
2019-01-26T19:59:54.437Z,28.6
2019-01-26T20:00:55.839Z,28.4
2019-01-26T20:01:57.216Z,28.7
2019-01-26T20:02:59.316Z,28.6
2019-01-26T20:03:59.926Z,28.6
2019-01-26T20:05:01.495Z,28.5
2019-01-26T20:06:02.869Z,28.5
2019-01-26T20:07:04.251Z,28.5
2019-01-26T20:08:05.658Z,28.5
2019-01-26T20:09:09.505Z,28.5
2019-01-26T20:10:08.647Z,28.5
2019-01-26T20:11:10.023Z,28.6
2019-01-26T20:12:11.408Z,28.6
2019-01-26T20:13:12.804Z,28.5
2019-01-26T20:14:14.277Z,28.5
2019-01-26T20:15:15.675Z,28.5
2019-01-26T20:16:17.116Z,28.5
2019-01-26T20:17:18.526Z,28.4
2019-01-26T20:18:19.898Z,28.5
2019-01-26T20:19:21.283Z,28.5
2019-01-26T20:20:22.724Z,28.5
2019-01-26T20:21:24.085Z,28.4
2019-01-26T20:22:25.492Z,28.4
2019-01-26T20:23:26.908Z,28.5
2019-01-26T20:24:28.260Z,28.4
2019-01-26T20:25:29.810Z,28.4
2019-01-26T20:26:31.179Z,28.5
2019-01-26T20:27:32.558Z,28.5
2019-01-26T20:28:33.939Z,28.5
2019-01-26T20:29:35.303Z,28.5
2019-01-26T20:30:36.670Z,28.4
2019-01-26T20:31:38.037Z,28.5
2019-01-26T20:32:39.445Z,28.4
2019-01-26T20:33:40.827Z,28.6
2019-01-26T20:34:42.243Z,28.5
2019-01-26T20:35:43.584Z,28.6
2019-01-26T20:36:44.960Z,28.4
2019-01-26T20:37:46.365Z,28.5
2019-01-26T20:38:47.728Z,28.6
2019-01-26T20:39:49.095Z,28.5
2019-01-26T20:40:50.474Z,28.5
2019-01-26T20:41:51.842Z,28.6
2019-01-26T20:42:53.252Z,28.4
2019-01-26T20:43:54.673Z,28.4
2019-01-26T20:44:56.038Z,28.5
2019-01-26T20:45:57.485Z,28.6
2019-01-26T20:46:58.854Z,28.6
2019-01-26T20:48:00.237Z,28.4
2019-01-26T20:49:01.615Z,28.6
2019-01-26T20:50:03.066Z,28.6
2019-01-26T20:51:04.469Z,28.6
2019-01-26T20:52:05.845Z,28.5
2019-01-26T20:53:07.277Z,28.6
2019-01-26T20:54:08.706Z,28.3
2019-01-26T20:55:10.077Z,28.4
2019-01-26T20:56:11.449Z,28.4
2019-01-26T20:57:12.819Z,28.6
2019-01-26T20:58:14.259Z,28.5
2019-01-26T20:59:15.646Z,28.7
2019-01-26T21:00:17.014Z,28.4
2019-01-26T21:01:18.382Z,28.6
2019-01-26T21:02:19.743Z,28.6
2019-01-26T21:03:21.157Z,28.5
2019-01-26T21:04:22.530Z,28.6
2019-01-26T21:05:23.894Z,28.4
2019-01-26T21:06:25.259Z,28.6
2019-01-26T21:07:26.662Z,28.5
2019-01-26T21:08:28.032Z,28.6
2019-01-26T21:09:29.396Z,28.4
2019-01-26T21:10:30.763Z,28.6
2019-01-26T21:11:32.130Z,28.5
2019-01-26T21:12:33.491Z,28.5
2019-01-26T21:13:34.882Z,28.6
2019-01-26T21:14:36.254Z,28.4
2019-01-26T21:15:37.633Z,28.4
2019-01-26T21:16:38.987Z,28.6
2019-01-26T21:17:40.359Z,28.3
2019-01-26T21:18:41.730Z,28.6
2019-01-26T21:19:43.098Z,28.5
2019-01-26T21:20:44.467Z,28.4
2019-01-26T21:21:45.835Z,28.2
2019-01-26T21:22:47.201Z,28.3
2019-01-26T21:23:48.573Z,28.4
2019-01-26T21:24:49.945Z,28.4
2019-01-26T21:25:51.333Z,28.6
2019-01-26T21:26:52.704Z,28.6
2019-01-26T21:27:54.068Z,28.6
2019-01-26T21:28:55.440Z,28.6
2019-01-26T21:29:56.854Z,28.4
2019-01-26T21:30:58.228Z,28.4
2019-01-26T21:31:59.594Z,28.6
2019-01-26T21:33:00.969Z,28.3
2019-01-26T21:34:02.326Z,28.4
2019-01-26T21:35:03.699Z,28.6
2019-01-26T21:36:05.223Z,28.4
2019-01-26T21:37:06.622Z,28.4
2019-01-26T21:38:08.047Z,28.6
2019-01-26T21:39:09.496Z,28.3
2019-01-26T21:40:11.049Z,28.7
2019-01-26T21:41:12.350Z,28.6
2019-01-26T21:42:13.721Z,28.6
2019-01-26T21:43:15.085Z,28.4
2019-01-26T21:44:16.627Z,28.3
2019-01-26T21:45:18.010Z,28.7
2019-01-26T21:46:19.389Z,28.6
2019-01-26T21:47:20.751Z,28.4
2019-01-26T21:48:22.160Z,28.6
2019-01-26T21:49:23.755Z,28.6
2019-01-26T21:50:25.198Z,28.6
2019-01-26T21:51:26.644Z,28.6
2019-01-26T21:52:28.016Z,28.5
2019-01-26T21:53:29.427Z,28.3
2019-01-26T21:54:30.788Z,28.5
2019-01-26T21:55:32.164Z,28.5
2019-01-26T21:56:33.538Z,28.3
2019-01-26T21:57:34.956Z,28.3
2019-01-26T21:58:36.372Z,28.6
2019-01-26T21:59:37.721Z,28.2
2019-01-26T22:00:39.094Z,28.3
2019-01-26T22:01:40.457Z,28.2
2019-01-26T22:02:41.843Z,28.2
2019-01-26T22:03:43.207Z,28.0
2019-01-26T22:04:44.573Z,28.1
2019-01-26T22:05:45.963Z,28.2
2019-01-26T22:06:47.315Z,28.2
2019-01-26T22:07:48.679Z,28.2
2019-01-26T22:08:50.271Z,28.2
2019-01-26T22:09:51.812Z,28.2
2019-01-26T22:10:53.215Z,28.2
2019-01-26T22:11:54.617Z,28.1
2019-01-26T22:12:55.998Z,28.0
2019-01-26T22:13:57.413Z,28.2
2019-01-26T22:14:58.815Z,28.2
2019-01-26T22:16:00.361Z,28.2
2019-01-26T22:17:01.816Z,28.4
2019-01-26T22:18:03.287Z,28.3
2019-01-26T22:19:04.932Z,28.2
2019-01-26T22:20:06.432Z,28.2
2019-01-26T22:21:07.906Z,28.2
2019-01-26T22:22:09.483Z,28.2
2019-01-26T22:23:10.875Z,28.1
2019-01-26T22:24:12.225Z,28.3
2019-01-26T22:25:13.600Z,27.9
2019-01-26T22:26:15.007Z,28.2
2019-01-26T22:27:16.365Z,27.9
2019-01-26T22:28:17.953Z,27.9
2019-01-26T22:29:19.371Z,28.1
2019-01-26T22:30:20.955Z,27.9
2019-01-26T22:31:22.557Z,28.1
2019-01-26T22:32:24.081Z,28.1
2019-01-26T22:33:25.567Z,28.1
2019-01-26T22:34:26.995Z,28.3
2019-01-26T22:35:28.404Z,28.3
2019-01-26T22:36:29.876Z,28.1
2019-01-26T22:37:31.272Z,28.1
2019-01-26T22:38:32.725Z,28.0
2019-01-26T22:39:34.309Z,28.3
2019-01-26T22:40:35.682Z,28.3
2019-01-26T22:41:37.091Z,28.3
2019-01-26T22:42:38.470Z,28.2
2019-01-26T22:43:39.843Z,27.9
2019-01-26T22:44:41.237Z,27.9
2019-01-26T22:45:42.614Z,27.7
2019-01-26T22:46:43.986Z,27.9
2019-01-26T22:47:45.401Z,28.1
2019-01-26T22:48:46.807Z,28.2
2019-01-26T22:49:48.288Z,28.1
2019-01-26T22:50:49.669Z,28.1
2019-01-26T22:51:53.367Z,27.9
2019-01-26T22:52:52.639Z,27.8
2019-01-26T22:53:54.219Z,27.7
2019-01-26T22:54:55.817Z,27.9
2019-01-26T22:55:57.410Z,27.8
2019-01-26T22:56:58.976Z,27.8
2019-01-26T22:58:00.512Z,27.8
2019-01-26T22:59:01.924Z,27.8
2019-01-26T23:00:03.294Z,27.8
2019-01-26T23:01:04.675Z,27.8
2019-01-26T23:02:06.029Z,27.7
2019-01-26T23:03:07.394Z,28.0
2019-01-26T23:04:08.791Z,28.1
2019-01-26T23:05:10.188Z,27.9
2019-01-26T23:06:11.573Z,27.9
2019-01-26T23:07:12.968Z,28.0
2019-01-26T23:08:14.329Z,27.8
2019-01-26T23:09:15.736Z,28.0
2019-01-26T23:10:17.151Z,27.8
2019-01-26T23:11:18.532Z,28.0
2019-01-26T23:12:19.917Z,28.0
2019-01-26T23:13:21.300Z,28.1
2019-01-26T23:14:22.688Z,27.9
2019-01-26T23:15:24.060Z,28.0
2019-01-26T23:16:25.445Z,28.0
2019-01-26T23:17:26.946Z,27.7
2019-01-26T23:18:28.324Z,27.9
2019-01-26T23:19:29.694Z,27.7
2019-01-26T23:20:31.062Z,28.1
2019-01-26T23:21:32.507Z,28.0
2019-01-26T23:22:33.870Z,27.8
2019-01-26T23:23:35.259Z,27.9
2019-01-26T23:24:36.625Z,27.8
2019-01-26T23:25:37.997Z,27.9
2019-01-26T23:26:39.368Z,27.7
2019-01-26T23:27:40.739Z,28.0
2019-01-26T23:28:42.107Z,28.0
2019-01-26T23:29:43.482Z,28.0
2019-01-26T23:30:44.838Z,27.9
2019-01-26T23:31:46.206Z,27.8
2019-01-26T23:32:47.601Z,28.0
2019-01-26T23:33:48.961Z,27.9
2019-01-26T23:34:50.324Z,28.0
2019-01-26T23:35:51.700Z,27.9
2019-01-26T23:36:53.074Z,28.1
2019-01-26T23:37:54.439Z,27.9
2019-01-26T23:39:01.943Z,27.8
2019-01-26T23:39:57.143Z,27.8
2019-01-26T23:40:58.517Z,27.8
2019-01-26T23:41:59.885Z,27.8
2019-01-26T23:43:01.256Z,27.8
2019-01-26T23:44:02.633Z,27.7
2019-01-26T23:45:03.979Z,28.0
2019-01-26T23:46:05.352Z,28.0
2019-01-26T23:47:06.743Z,28.1
2019-01-26T23:48:08.111Z,27.9
2019-01-26T23:49:09.495Z,27.8
2019-01-26T23:50:10.858Z,28.0
2019-01-26T23:51:12.230Z,27.7
2019-01-26T23:52:13.603Z,27.8
2019-01-26T23:53:14.974Z,28.0
2019-01-26T23:54:16.343Z,27.7
2019-01-26T23:55:17.721Z,28.0
2019-01-26T23:56:19.104Z,27.9
2019-01-26T23:57:20.467Z,27.6
2019-01-26T23:58:21.906Z,27.7
2019-01-26T23:59:23.282Z,27.7
